createdAt,value
2022-10-11T00:01:17.137Z,2.90
2022-10-11T00:03:43.517Z,2.10
2022-10-11T00:06:10.158Z,3.30
2022-10-11T00:08:36.752Z,3.20
2022-10-11T00:11:07.247Z,2.90
2022-10-11T00:13:34.545Z,2.73
2022-10-11T00:16:01.577Z,3.50
2022-10-11T00:18:28.205Z,3.40
2022-10-11T00:21:03.189Z,2.57
2022-10-11T00:23:29.599Z,3.13
2022-10-11T00:26:00.812Z,3.10
2022-10-11T00:28:27.675Z,3.50
2022-10-11T00:30:54.259Z,3.27
2022-10-11T00:33:20.830Z,2.97
2022-10-11T00:35:48.643Z,3.70
2022-10-11T00:38:15.528Z,3.67
2022-10-11T00:40:41.872Z,3.00
2022-10-11T00:43:24.471Z,3.90
2022-10-11T00:45:56.808Z,4.87
2022-10-11T00:48:27.589Z,4.00
2022-10-11T00:50:57.337Z,3.93
2022-10-11T00:53:24.474Z,3.70
2022-10-11T00:55:58.964Z,3.43
2022-10-11T00:58:25.668Z,2.90
2022-10-11T01:00:53.240Z,2.80
2022-10-11T01:03:22.889Z,2.90
2022-10-11T01:05:49.542Z,4.00
2022-10-11T01:08:16.245Z,4.20
2022-10-11T01:10:42.629Z,2.63
2022-10-11T01:13:34.997Z,2.53
2022-10-11T01:16:14.188Z,3.67
2022-10-11T01:19:22.128Z,3.60
2022-10-11T01:21:57.675Z,3.03
2022-10-11T01:25:09.192Z,2.70
2022-10-11T01:28:02.021Z,3.13
2022-10-11T01:30:36.989Z,3.10
2022-10-11T01:33:35.274Z,3.20
2022-10-11T01:36:14.200Z,2.77
2022-10-11T01:39:06.705Z,2.90
2022-10-11T01:41:46.223Z,2.70
2022-10-11T01:44:13.488Z,2.80
2022-10-11T01:46:41.361Z,2.60
2022-10-11T01:49:07.837Z,2.80
2022-10-11T01:51:47.455Z,2.47
2022-10-11T01:55:08.643Z,2.40
2022-10-11T01:57:48.608Z,2.50
2022-10-11T02:00:20.794Z,3.30
2022-10-11T02:03:06.234Z,1.97
2022-10-11T02:05:56.252Z,2.23
2022-10-11T02:08:33.746Z,3.13
2022-10-11T02:11:22.086Z,2.37
2022-10-11T02:13:59.801Z,2.50
2022-10-11T02:16:36.808Z,2.80
2022-10-11T02:19:06.385Z,3.63
2022-10-11T02:21:36.119Z,2.97
2022-10-11T02:24:09.076Z,2.93
2022-10-11T02:26:39.175Z,2.20
2022-10-11T02:29:09.741Z,2.87
2022-10-11T02:31:37.145Z,4.53
2022-10-11T02:34:14.748Z,3.00
2022-10-11T02:36:51.033Z,2.90
2022-10-11T02:39:26.476Z,2.43
2022-10-11T02:41:56.465Z,2.63
2022-10-11T02:44:31.888Z,2.87
2022-10-11T02:47:00.226Z,2.70
2022-10-11T02:49:29.382Z,3.03
2022-10-11T02:51:56.828Z,2.33
2022-10-11T02:54:24.771Z,2.70
2022-10-11T02:56:51.674Z,2.93
2022-10-11T02:59:18.392Z,3.20
2022-10-11T03:01:44.863Z,2.60
2022-10-11T03:04:11.299Z,3.07
2022-10-11T03:06:37.710Z,2.80
2022-10-11T03:09:04.312Z,2.87
2022-10-11T03:11:30.657Z,2.73
2022-10-11T03:13:57.055Z,2.57
2022-10-11T03:16:23.396Z,2.67
2022-10-11T03:18:49.908Z,2.93
2022-10-11T03:21:16.294Z,4.20
2022-10-11T03:23:42.747Z,3.13
2022-10-11T03:26:09.606Z,4.07
2022-10-11T03:28:36.479Z,2.93
2022-10-11T03:31:03.288Z,2.40
2022-10-11T03:33:29.693Z,2.83
2022-10-11T03:35:56.109Z,2.90
2022-10-11T03:38:23.028Z,3.10
2022-10-11T03:40:49.390Z,3.00
2022-10-11T03:43:16.225Z,3.50
2022-10-11T03:45:42.645Z,3.00
2022-10-11T03:48:09.583Z,3.77
2022-10-11T03:50:36.666Z,2.50
2022-10-11T03:53:03.745Z,3.67
2022-10-11T03:55:30.114Z,2.93
2022-10-11T03:57:56.741Z,3.03
2022-10-11T04:00:23.311Z,4.07
2022-10-11T04:02:49.719Z,3.80
2022-10-11T04:05:16.448Z,2.83
2022-10-11T04:07:43.164Z,3.30
2022-10-11T04:10:09.744Z,3.13
2022-10-11T04:12:38.417Z,3.33
2022-10-11T04:15:06.504Z,2.90
2022-10-11T04:17:33.065Z,3.10
2022-10-11T04:19:59.428Z,3.30
2022-10-11T04:22:25.804Z,2.90
2022-10-11T04:24:52.123Z,2.90
2022-10-11T04:27:18.691Z,2.90
2022-10-11T04:29:45.014Z,2.90
2022-10-11T04:32:11.657Z,3.40
2022-10-11T04:34:38.163Z,2.97
2022-10-11T04:37:04.684Z,3.57
2022-10-11T04:39:31.021Z,2.93
2022-10-11T04:41:57.411Z,3.20
2022-10-11T04:44:23.737Z,3.67
2022-10-11T04:46:50.292Z,3.07
2022-10-11T04:49:16.619Z,3.43
2022-10-11T04:51:42.991Z,3.03
2022-10-11T04:54:09.344Z,3.60
2022-10-11T04:56:35.779Z,2.87
2022-10-11T04:59:02.114Z,2.80
2022-10-11T05:01:28.857Z,2.97
2022-10-11T05:03:55.185Z,3.00
2022-10-11T05:06:21.624Z,2.80
2022-10-11T05:08:47.934Z,2.80
2022-10-11T05:11:17.004Z,3.00
2022-10-11T05:13:44.888Z,3.10
2022-10-11T05:16:12.703Z,3.10
2022-10-11T05:18:40.229Z,2.90
2022-10-11T05:21:16.013Z,3.50
2022-10-11T05:23:42.676Z,3.20
2022-10-11T05:26:09.528Z,3.47
2022-10-11T05:28:36.630Z,2.90
2022-10-11T05:31:03.660Z,3.33
2022-10-11T05:33:31.179Z,4.50
2022-10-11T05:35:57.593Z,3.43
2022-10-11T05:38:24.421Z,3.43
2022-10-11T05:40:51.236Z,4.30
2022-10-11T05:43:17.997Z,4.03
2022-10-11T05:45:44.757Z,5.20
2022-10-11T05:48:11.369Z,5.27
2022-10-11T05:50:38.683Z,5.53
2022-10-11T05:53:05.800Z,5.27
2022-10-11T05:55:39.460Z,3.53
2022-10-11T05:58:07.295Z,4.10
2022-10-11T06:00:40.113Z,3.73
2022-10-11T06:03:08.271Z,3.53
2022-10-11T06:05:35.585Z,3.30
2022-10-11T06:08:03.548Z,3.30
2022-10-11T06:10:29.914Z,3.50
2022-10-11T06:12:56.350Z,3.10
2022-10-11T06:15:22.717Z,3.43
2022-10-11T06:17:49.106Z,3.37
2022-10-11T06:20:15.703Z,3.73
2022-10-11T06:22:42.653Z,3.00
2022-10-11T06:25:09.367Z,3.07
2022-10-11T06:27:35.958Z,3.07
2022-10-11T06:30:03.034Z,4.13
2022-10-11T06:32:29.426Z,3.90
2022-10-11T06:34:55.771Z,4.03
2022-10-11T06:37:22.194Z,3.20
2022-10-11T06:39:50.277Z,3.07
2022-10-11T06:42:16.791Z,3.57
2022-10-11T06:44:43.164Z,3.93
2022-10-11T06:47:09.651Z,3.50
2022-10-11T06:49:36.013Z,3.37
2022-10-11T06:52:02.371Z,3.00
2022-10-11T06:54:28.768Z,4.20
2022-10-11T06:56:55.192Z,3.63
2022-10-11T06:59:21.526Z,3.40
2022-10-11T07:01:48.060Z,3.17
2022-10-11T07:04:14.391Z,2.60
2022-10-11T07:06:41.455Z,3.20
2022-10-11T07:09:08.623Z,3.07
2022-10-11T07:11:35.546Z,2.77
2022-10-11T07:14:07.439Z,3.50
2022-10-11T07:16:37.357Z,3.97
2022-10-11T07:19:06.021Z,3.57
2022-10-11T07:21:34.088Z,3.53
2022-10-11T07:24:01.456Z,3.70
2022-10-11T07:26:31.346Z,2.90
2022-10-11T07:29:00.567Z,4.47
2022-10-11T07:31:27.242Z,4.30
2022-10-11T07:33:53.977Z,4.23
2022-10-11T07:36:20.509Z,3.60
2022-10-11T07:38:47.589Z,3.63
2022-10-11T07:41:14.668Z,3.97
2022-10-11T07:43:43.328Z,4.40
2022-10-11T07:46:11.346Z,3.90
2022-10-11T07:48:38.755Z,3.20
2022-10-11T07:51:20.464Z,3.30
2022-10-11T07:53:49.049Z,3.30
2022-10-11T07:56:18.595Z,2.93
2022-10-11T07:58:50.292Z,3.23
2022-10-11T08:01:17.430Z,3.10
2022-10-11T08:03:43.923Z,3.20
2022-10-11T08:06:14.166Z,3.90
2022-10-11T08:08:40.501Z,3.40
2022-10-11T08:11:07.531Z,3.10
2022-10-11T08:13:36.811Z,3.30
2022-10-11T08:16:10.514Z,3.23
2022-10-11T08:18:40.097Z,2.90
2022-10-11T08:21:09.187Z,2.83
2022-10-11T08:23:36.032Z,3.47
2022-10-11T08:26:02.985Z,2.60
2022-10-11T08:28:29.830Z,3.33
2022-10-11T08:30:56.446Z,3.20
2022-10-11T08:33:24.210Z,2.80
2022-10-11T08:35:51.800Z,3.20
2022-10-11T08:38:19.369Z,3.30
2022-10-11T08:40:55.602Z,2.97
2022-10-11T08:43:29.333Z,3.37
2022-10-11T08:45:59.722Z,3.07
2022-10-11T08:48:34.470Z,2.93
2022-10-11T08:51:01.305Z,3.50
2022-10-11T08:53:45.941Z,4.63
2022-10-11T08:56:14.694Z,3.27
2022-10-11T08:58:52.108Z,3.80
2022-10-11T09:01:23.860Z,3.27
2022-10-11T09:03:51.626Z,3.00
2022-10-11T09:06:24.182Z,2.53
2022-10-11T09:09:12.471Z,3.00
2022-10-11T09:11:47.276Z,3.43
2022-10-11T09:14:41.699Z,2.90
2022-10-11T09:17:25.421Z,3.50
2022-10-11T09:20:03.675Z,2.90
2022-10-11T09:22:59.558Z,3.07
2022-10-11T09:25:48.099Z,2.60
2022-10-11T09:28:28.697Z,2.90
2022-10-11T09:30:57.998Z,2.70
2022-10-11T09:33:41.125Z,2.83
2022-10-11T09:36:28.772Z,4.03
2022-10-11T09:39:13.924Z,2.70
2022-10-11T09:41:56.269Z,2.90
2022-10-11T09:44:25.852Z,2.70
2022-10-11T09:46:54.979Z,2.97
2022-10-11T09:49:25.319Z,2.57
2022-10-11T09:51:57.831Z,3.07
2022-10-11T09:54:38.857Z,2.70
2022-10-11T09:57:05.571Z,3.40
2022-10-11T09:59:34.988Z,3.27
2022-10-11T10:02:13.514Z,2.87
2022-10-11T10:05:00.745Z,2.93
2022-10-11T10:07:28.973Z,2.70
2022-10-11T10:09:55.550Z,3.20
2022-10-11T10:12:26.036Z,2.80
2022-10-11T10:15:04.786Z,3.00
2022-10-11T10:17:31.773Z,3.00
2022-10-11T10:20:00.486Z,2.80
2022-10-11T10:22:30.640Z,3.37
2022-10-11T10:24:59.536Z,2.90
2022-10-11T10:27:28.576Z,4.43
2022-10-11T10:30:15.824Z,2.60
2022-10-11T10:32:52.122Z,3.53
2022-10-11T10:35:49.354Z,2.90
2022-10-11T10:38:26.405Z,2.80
2022-10-11T10:40:58.902Z,2.30
2022-10-11T10:43:32.003Z,3.93
2022-10-11T10:46:16.708Z,3.50
2022-10-11T10:51:52.752Z,2.80
2022-10-11T10:54:40.558Z,2.93
2022-10-11T10:57:23.224Z,2.73
2022-10-11T11:00:19.497Z,3.33
2022-10-11T11:03:05.725Z,2.90
2022-10-11T11:05:41.223Z,2.70
2022-10-11T11:08:19.672Z,2.97
2022-10-11T11:11:28.041Z,2.20
2022-10-11T11:14:15.667Z,2.90
2022-10-11T11:17:12.638Z,2.83
2022-10-11T11:20:00.415Z,2.87
2022-10-11T11:22:55.903Z,3.77
2022-10-11T11:25:30.642Z,2.53
2022-10-11T11:28:18.309Z,2.47
2022-10-11T11:31:10.078Z,2.57
2022-10-11T11:33:48.775Z,2.60
2022-10-11T11:36:42.306Z,3.27
2022-10-11T11:39:19.189Z,2.60
2022-10-11T11:41:53.600Z,3.27
2022-10-11T11:44:28.046Z,3.00
2022-10-11T11:47:06.572Z,2.53
2022-10-11T11:49:39.458Z,3.13
2022-10-11T11:52:12.778Z,3.63
2022-10-11T11:54:54.709Z,3.13
2022-10-11T11:57:46.003Z,2.63
2022-10-11T12:00:19.942Z,2.63
2022-10-11T12:03:00.269Z,3.53
2022-10-11T12:05:31.981Z,2.70
2022-10-11T12:08:08.319Z,2.70
2022-10-11T12:10:54.455Z,2.80
2022-10-11T12:13:31.171Z,2.77
2022-10-11T12:16:04.475Z,2.67
2022-10-11T12:18:32.325Z,2.40
2022-10-11T12:21:08.418Z,2.90
2022-10-11T12:23:41.465Z,2.90
2022-10-11T12:26:41.192Z,3.33
2022-10-11T12:29:40.748Z,2.77
2022-10-11T12:32:07.005Z,3.10
2022-10-11T12:34:42.755Z,2.87
2022-10-11T12:37:18.673Z,4.00
2022-10-11T12:39:59.600Z,2.60
2022-10-11T12:42:36.721Z,3.20
2022-10-11T12:45:12.251Z,3.87
2022-10-11T12:47:43.300Z,3.63
2022-10-11T12:50:19.921Z,3.20
2022-10-11T12:52:55.360Z,3.40
2022-10-11T12:55:35.109Z,2.37
2022-10-11T12:58:21.520Z,2.10
2022-10-11T13:00:51.420Z,3.57
2022-10-11T13:03:32.653Z,3.17
2022-10-11T13:06:01.883Z,2.80
2022-10-11T13:08:37.391Z,2.30
2022-10-11T13:11:10.206Z,2.90
2022-10-11T13:13:44.466Z,2.40
2022-10-11T13:16:19.271Z,2.30
2022-10-11T13:18:48.805Z,2.33
2022-10-11T13:21:28.160Z,2.50
2022-10-11T13:23:58.037Z,1.83
2022-10-11T13:26:26.739Z,2.30
2022-10-11T13:28:53.383Z,3.10
2022-10-11T13:31:19.834Z,2.80
2022-10-11T13:33:46.501Z,2.27
2022-10-11T13:36:17.722Z,2.13
2022-10-11T13:38:57.981Z,2.07
2022-10-11T13:41:29.716Z,2.70
2022-10-11T13:43:58.086Z,2.63
2022-10-11T13:46:27.011Z,2.50
2022-10-11T13:49:06.945Z,3.23
2022-10-11T13:51:36.996Z,2.40
2022-10-11T13:54:13.157Z,2.60
2022-10-11T13:56:49.735Z,2.27
2022-10-11T13:59:22.713Z,2.77
2022-10-11T14:01:50.872Z,2.53
2022-10-11T14:04:17.541Z,2.83
2022-10-11T14:06:58.242Z,2.73
2022-10-11T14:09:27.782Z,2.10
2022-10-11T14:11:55.051Z,3.13
2022-10-11T14:14:30.272Z,2.73
2022-10-11T14:16:59.097Z,2.80
2022-10-11T14:19:25.888Z,2.47
2022-10-11T14:21:53.265Z,2.07
2022-10-11T14:24:20.623Z,1.93
2022-10-11T14:26:49.951Z,2.77
2022-10-11T14:29:24.909Z,2.23
2022-10-11T14:31:52.357Z,2.30
2022-10-11T14:34:21.994Z,2.50
2022-10-11T14:36:49.575Z,2.07
2022-10-11T14:39:27.641Z,2.57
2022-10-11T14:41:54.367Z,2.40
2022-10-11T14:44:21.968Z,2.70
2022-10-11T14:46:50.262Z,2.30
2022-10-11T14:49:19.565Z,2.27
2022-10-11T14:51:48.033Z,1.87
2022-10-11T14:54:16.002Z,1.97
2022-10-11T14:56:42.383Z,2.10
2022-10-11T14:59:14.151Z,2.27
2022-10-11T15:01:40.602Z,2.03
2022-10-11T15:04:07.064Z,2.20
2022-10-11T15:06:38.567Z,2.70
2022-10-11T15:09:06.589Z,2.33
2022-10-11T15:11:36.359Z,2.43
2022-10-11T15:14:02.897Z,2.30
2022-10-11T15:16:29.301Z,2.27
2022-10-11T15:18:55.802Z,2.37
2022-10-11T15:21:24.998Z,2.40
2022-10-11T15:23:52.446Z,2.80
2022-10-11T15:26:21.850Z,2.47
2022-10-11T15:28:50.352Z,3.33
2022-10-11T15:31:18.065Z,2.27
2022-10-11T15:33:44.697Z,2.30
2022-10-11T15:36:13.612Z,1.97
2022-10-11T15:38:40.670Z,2.10
2022-10-11T15:41:08.400Z,2.37
2022-10-11T15:43:34.739Z,2.23
2022-10-11T15:46:02.592Z,2.43
2022-10-11T15:48:29.107Z,2.30
2022-10-11T15:50:55.780Z,3.00
2022-10-11T15:53:26.164Z,2.80
2022-10-11T15:55:54.545Z,3.03
2022-10-11T15:58:24.007Z,2.43
2022-10-11T16:00:56.363Z,2.40
2022-10-11T16:03:25.664Z,2.90
2022-10-11T16:05:53.476Z,3.63
2022-10-11T16:08:20.348Z,2.70
2022-10-11T16:10:46.744Z,2.87
2022-10-11T16:13:13.569Z,3.00
2022-10-11T16:15:41.843Z,2.27
2022-10-11T16:18:10.825Z,2.33
2022-10-11T16:20:42.716Z,2.40
2022-10-11T16:23:09.818Z,2.13
2022-10-11T16:25:36.636Z,2.40
2022-10-11T16:28:04.111Z,2.70
2022-10-11T16:30:30.457Z,3.60
2022-10-11T16:32:57.118Z,3.40
2022-10-11T16:35:23.510Z,3.57
2022-10-11T16:37:50.153Z,3.20
2022-10-11T16:40:19.003Z,3.40
2022-10-11T16:42:46.580Z,2.90
2022-10-11T16:45:15.538Z,3.00
2022-10-11T16:47:42.809Z,2.67
2022-10-11T16:50:10.240Z,3.87
2022-10-11T16:52:36.600Z,3.93
2022-10-11T16:55:03.507Z,2.93
2022-10-11T16:57:29.834Z,2.40
2022-10-11T16:59:56.446Z,2.73
2022-10-11T17:02:31.404Z,2.60
2022-10-11T17:04:58.787Z,2.23
2022-10-11T17:07:25.266Z,2.37
2022-10-11T17:09:51.722Z,2.30
2022-10-11T17:12:21.088Z,2.80
2022-10-11T17:14:48.185Z,2.53
2022-10-11T17:17:15.583Z,3.00
2022-10-11T17:19:45.386Z,3.10
2022-10-11T17:22:13.803Z,3.70
2022-10-11T17:24:40.335Z,2.57
2022-10-11T17:27:07.048Z,2.93
2022-10-11T17:29:33.729Z,2.70
2022-10-11T17:32:00.209Z,3.73
2022-10-11T17:34:26.651Z,3.60
2022-10-11T17:36:53.049Z,3.43
2022-10-11T17:39:22.318Z,4.90
2022-10-11T17:41:49.599Z,4.40
2022-10-11T17:44:18.957Z,4.27
2022-10-11T17:46:45.973Z,4.23
2022-10-11T17:49:13.166Z,3.90
2022-10-11T17:51:41.201Z,4.87
2022-10-11T17:54:12.379Z,5.40
2022-10-11T17:56:40.702Z,5.73
2022-10-11T17:59:08.553Z,4.57
2022-10-11T18:01:35.716Z,8.80
2022-10-11T18:04:04.840Z,10.73
2022-10-11T18:06:37.336Z,6.33
2022-10-11T18:09:04.219Z,4.90
2022-10-11T18:11:31.487Z,4.80
2022-10-11T18:13:59.089Z,3.83
2022-10-11T18:16:28.547Z,3.83
2022-10-11T18:18:57.220Z,3.47
2022-10-11T18:21:27.719Z,3.87
2022-10-11T18:24:02.197Z,5.30
2022-10-11T18:26:30.794Z,4.33
2022-10-11T18:28:58.009Z,6.90
2022-10-11T18:31:29.772Z,6.13
2022-10-11T18:33:56.656Z,9.60
2022-10-11T18:36:26.002Z,8.60
2022-10-11T18:38:54.963Z,7.97
2022-10-11T18:41:23.408Z,7.37
2022-10-11T18:43:54.726Z,7.07
2022-10-11T18:46:22.128Z,7.30
2022-10-11T18:48:51.100Z,7.07
2022-10-11T18:51:20.470Z,5.03
2022-10-11T18:53:47.627Z,4.30
2022-10-11T18:56:15.890Z,5.00
2022-10-11T18:58:44.273Z,3.50
2022-10-11T19:01:15.855Z,3.20
2022-10-11T19:03:43.471Z,3.60
2022-10-11T19:06:18.172Z,3.50
2022-10-11T19:08:49.912Z,3.97
2022-10-11T19:11:17.541Z,3.20
2022-10-11T19:13:44.121Z,3.10
2022-10-11T19:16:18.075Z,3.27
2022-10-11T19:18:44.686Z,3.43
2022-10-11T19:21:12.855Z,3.57
2022-10-11T19:23:42.445Z,2.90
2022-10-11T19:26:13.667Z,3.37
2022-10-11T19:28:40.361Z,4.03
2022-10-11T19:31:10.100Z,6.10
2022-10-11T19:33:36.908Z,8.00
2022-10-11T19:36:06.591Z,4.10
2022-10-11T19:38:34.702Z,4.30
2022-10-11T19:41:01.863Z,4.27
2022-10-11T19:43:28.444Z,4.33
2022-10-11T19:46:06.516Z,3.90
2022-10-11T19:48:36.712Z,4.30
2022-10-11T19:51:05.378Z,4.27
2022-10-11T19:53:32.169Z,4.20
2022-10-11T19:56:03.232Z,4.97
2022-10-11T19:58:30.185Z,4.60
2022-10-11T20:01:04.268Z,3.90
2022-10-11T20:03:31.166Z,5.33
2022-10-11T20:06:06.733Z,4.10
2022-10-11T20:08:33.949Z,4.03
2022-10-11T20:11:03.610Z,4.80
2022-10-11T20:13:34.706Z,4.63
2022-10-11T20:16:07.337Z,4.57
2022-10-11T20:18:33.745Z,4.37
2022-10-11T20:21:03.768Z,4.50
2022-10-11T20:23:31.363Z,4.40
2022-10-11T20:26:24.294Z,4.10
2022-10-11T20:28:55.930Z,3.93
2022-10-11T20:31:28.078Z,4.00
2022-10-11T20:34:03.440Z,3.83
2022-10-11T20:36:33.131Z,3.97
2022-10-11T20:39:03.065Z,3.30
2022-10-11T20:41:32.409Z,3.43
2022-10-11T20:44:00.596Z,4.30
2022-10-11T20:46:29.900Z,4.27
2022-10-11T20:49:01.900Z,3.87
2022-10-11T20:51:30.332Z,3.80
2022-10-11T20:53:56.938Z,4.07
2022-10-11T20:56:23.710Z,3.43
2022-10-11T20:58:52.663Z,3.70
2022-10-11T21:01:21.873Z,3.77
2022-10-11T21:03:48.407Z,3.83
2022-10-11T21:06:14.765Z,3.80
2022-10-11T21:08:41.601Z,3.50
2022-10-11T21:11:08.693Z,3.63
2022-10-11T21:13:35.300Z,3.83
2022-10-11T21:16:12.302Z,3.90
2022-10-11T21:18:38.918Z,3.77
2022-10-11T21:21:07.592Z,3.70
2022-10-11T21:23:34.516Z,3.67
2022-10-11T21:26:06.349Z,3.77
2022-10-11T21:28:33.284Z,4.30
2022-10-11T21:31:04.565Z,3.90
2022-10-11T21:33:31.724Z,4.33
2022-10-11T21:35:58.228Z,4.20
2022-10-11T21:38:24.584Z,5.37
2022-10-11T21:40:50.972Z,5.10
2022-10-11T21:43:17.362Z,5.83
2022-10-11T21:45:43.744Z,5.63
2022-10-11T21:48:10.282Z,6.70
2022-10-11T21:50:36.621Z,6.73
2022-10-11T21:53:03.020Z,5.77
2022-10-11T21:55:29.395Z,5.60
2022-10-11T21:57:55.970Z,5.10
2022-10-11T22:00:22.317Z,5.17
2022-10-11T22:02:48.736Z,5.50
2022-10-11T22:05:15.240Z,5.50
2022-10-11T22:07:41.855Z,6.10
2022-10-11T22:10:08.272Z,5.40
2022-10-11T22:12:35.027Z,6.63
2022-10-11T22:15:01.484Z,7.10
2022-10-11T22:17:28.005Z,5.73
2022-10-11T22:19:54.363Z,6.17
2022-10-11T22:22:20.751Z,6.10
2022-10-11T22:24:47.096Z,5.80
2022-10-11T22:27:13.607Z,5.00
2022-10-11T22:29:39.932Z,5.77
2022-10-11T22:32:06.301Z,4.57
2022-10-11T22:34:33.237Z,4.30
2022-10-11T22:36:59.616Z,5.00
2022-10-11T22:39:25.947Z,3.90
2022-10-11T22:41:53.836Z,4.37
2022-10-11T22:44:20.413Z,5.00
2022-10-11T22:46:46.914Z,4.77
2022-10-11T22:49:13.248Z,4.00
2022-10-11T22:51:39.752Z,4.53
2022-10-11T22:54:06.086Z,4.33
2022-10-11T22:56:32.628Z,4.20
2022-10-11T22:58:59.485Z,3.80
2022-10-11T23:01:25.859Z,3.27
2022-10-11T23:03:52.236Z,3.97
2022-10-11T23:06:18.866Z,4.20
2022-10-11T23:08:45.265Z,3.90
2022-10-11T23:11:13.812Z,3.80
2022-10-11T23:13:40.308Z,4.03
2022-10-11T23:16:08.819Z,4.10
2022-10-11T23:18:35.517Z,3.40
2022-10-11T23:21:02.642Z,3.67
2022-10-11T23:23:29.405Z,4.10
2022-10-11T23:26:11.385Z,4.10
2022-10-11T23:28:38.118Z,3.53
2022-10-11T23:31:11.942Z,3.83
2022-10-11T23:33:38.319Z,3.60
2022-10-11T23:36:05.487Z,3.90
2022-10-11T23:38:31.947Z,3.57
2022-10-11T23:40:58.464Z,3.70
2022-10-11T23:43:24.799Z,3.87
2022-10-11T23:45:51.288Z,3.50
2022-10-11T23:48:17.641Z,3.40
2022-10-11T23:50:44.236Z,3.80
2022-10-11T23:53:10.679Z,3.67
2022-10-11T23:55:37.059Z,5.80
2022-10-11T23:58:03.401Z,3.93
